createdAt,value
2019-05-09T00:01:34.023Z,82.78
2019-05-09T00:04:00.519Z,83.04
2019-05-09T00:06:26.837Z,83.06
2019-05-09T00:08:53.405Z,82.81
2019-05-09T00:11:19.669Z,83.15
2019-05-09T00:13:46.011Z,83.12
2019-05-09T00:16:14.592Z,82.74
2019-05-09T00:18:40.621Z,82.83
2019-05-09T00:21:15.096Z,82.84
2019-05-09T00:23:43.587Z,82.87
2019-05-09T00:26:09.496Z,82.76
2019-05-09T00:28:37.848Z,82.82
2019-05-09T00:31:13.640Z,83.15
2019-05-09T00:33:43.982Z,83.51
2019-05-09T00:36:09.822Z,83.46
2019-05-09T00:38:37.937Z,83.75
2019-05-09T00:41:04.162Z,83.90
2019-05-09T00:43:30.389Z,83.85
2019-05-09T00:46:03.859Z,83.58
2019-05-09T00:48:33.700Z,83.32
2019-05-09T00:51:00.024Z,82.83
2019-05-09T00:53:26.246Z,82.82
2019-05-09T00:55:53.044Z,82.27
2019-05-09T00:58:20.294Z,81.77
2019-05-09T01:00:48.118Z,81.91
2019-05-09T01:03:14.505Z,82.25
2019-05-09T01:05:40.733Z,81.79
2019-05-09T01:08:08.875Z,81.92
2019-05-09T01:10:35.007Z,81.91
2019-05-09T01:13:03.440Z,82.32
2019-05-09T01:15:29.460Z,82.37
2019-05-09T01:17:55.559Z,82.44
2019-05-09T01:20:24.020Z,81.84
2019-05-09T01:22:50.042Z,81.27
2019-05-09T01:25:16.411Z,80.59
2019-05-09T01:27:43.194Z,80.50
2019-05-09T01:30:10.009Z,80.75
2019-05-09T01:32:50.312Z,80.30
2019-05-09T01:35:16.609Z,80.30
2019-05-09T01:37:43.377Z,79.61
2019-05-09T01:40:10.007Z,79.55
2019-05-09T01:42:36.163Z,79.50
2019-05-09T01:45:06.241Z,79.62
2019-05-09T01:47:34.136Z,79.63
2019-05-09T01:50:00.511Z,79.44
2019-05-09T01:52:26.861Z,79.32
2019-05-09T01:54:54.154Z,80.03
2019-05-09T01:57:20.501Z,79.57
2019-05-09T01:59:46.742Z,79.75
2019-05-09T02:02:14.213Z,79.66
2019-05-09T02:04:40.972Z,79.44
2019-05-09T02:07:07.580Z,79.53
2019-05-09T02:09:34.470Z,79.67
2019-05-09T02:12:00.915Z,79.74
2019-05-09T02:14:29.187Z,79.76
2019-05-09T02:16:57.373Z,79.45
2019-05-09T02:19:33.175Z,79.25
2019-05-09T02:22:00.703Z,79.66
2019-05-09T02:24:27.029Z,79.64
2019-05-09T02:26:53.489Z,79.23
2019-05-09T02:29:19.944Z,78.84
2019-05-09T02:31:46.190Z,78.85
2019-05-09T02:34:14.893Z,79.25
2019-05-09T02:36:40.544Z,79.32
2019-05-09T02:39:08.926Z,79.73
2019-05-09T02:41:34.930Z,79.86
2019-05-09T02:44:01.653Z,79.87
2019-05-09T02:46:33.037Z,79.46
2019-05-09T02:48:59.637Z,79.57
2019-05-09T02:51:28.985Z,79.13
2019-05-09T02:53:53.984Z,78.89
2019-05-09T02:56:20.112Z,78.53
2019-05-09T02:59:00.005Z,78.87
2019-05-09T03:01:30.687Z,79.02
2019-05-09T03:03:58.918Z,78.88
2019-05-09T03:06:28.134Z,79.03
2019-05-09T03:08:53.191Z,78.84
2019-05-09T03:11:19.336Z,78.95
2019-05-09T03:13:45.673Z,79.41
2019-05-09T03:16:13.776Z,79.08
2019-05-09T03:18:39.985Z,79.29
2019-05-09T03:21:11.234Z,80.17
2019-05-09T03:23:38.922Z,80.15
2019-05-09T03:26:09.146Z,79.75
2019-05-09T03:28:53.186Z,79.21
2019-05-09T03:31:21.224Z,79.00
2019-05-09T03:33:50.135Z,79.64
2019-05-09T03:36:18.013Z,79.95
2019-05-09T03:38:43.821Z,79.52
2019-05-09T03:41:11.144Z,80.00
2019-05-09T03:43:37.822Z,79.44
2019-05-09T03:46:08.882Z,78.99
2019-05-09T03:48:47.819Z,79.13
2019-05-09T03:51:15.409Z,79.12
2019-05-09T03:53:41.568Z,78.96
2019-05-09T03:56:09.726Z,78.99
2019-05-09T03:58:38.680Z,79.09
2019-05-09T04:01:05.405Z,78.61
2019-05-09T04:03:31.668Z,78.66
2019-05-09T04:06:02.530Z,78.43
2019-05-09T04:08:28.074Z,78.46
2019-05-09T04:10:54.181Z,78.30
2019-05-09T04:13:22.918Z,78.40
2019-05-09T04:15:49.290Z,78.32
2019-05-09T04:18:17.704Z,78.15
2019-05-09T04:20:43.986Z,78.17
2019-05-09T04:23:10.095Z,78.14
2019-05-09T04:25:38.151Z,78.28
2019-05-09T04:28:04.673Z,77.97
2019-05-09T04:30:30.933Z,78.12
2019-05-09T04:32:58.164Z,77.96
2019-05-09T04:35:24.508Z,77.46
2019-05-09T04:37:50.810Z,77.47
2019-05-09T04:40:17.781Z,77.62
2019-05-09T04:42:44.533Z,77.64
2019-05-09T04:45:21.689Z,77.61
2019-05-09T04:47:47.790Z,77.43
2019-05-09T04:50:15.291Z,77.20
2019-05-09T04:52:43.296Z,77.11
2019-05-09T04:55:10.657Z,76.49
2019-05-09T04:57:38.267Z,76.69
2019-05-09T05:00:07.568Z,76.85
2019-05-09T05:02:38.079Z,76.72
2019-05-09T05:05:04.925Z,76.78
2019-05-09T05:07:31.175Z,76.65
2019-05-09T05:09:57.679Z,76.77
2019-05-09T05:12:23.968Z,77.03
2019-05-09T05:14:50.225Z,77.32
2019-05-09T05:17:18.054Z,77.13
2019-05-09T05:19:44.508Z,76.93
2019-05-09T05:22:12.726Z,76.67
2019-05-09T05:24:48.722Z,76.42
2019-05-09T05:27:14.712Z,76.25
2019-05-09T05:29:41.055Z,76.40
2019-05-09T05:32:09.271Z,76.56
2019-05-09T05:34:41.383Z,77.01
2019-05-09T05:37:08.626Z,77.61
2019-05-09T05:39:37.353Z,78.00
2019-05-09T05:42:03.334Z,76.92
2019-05-09T05:44:29.615Z,77.18
2019-05-09T05:46:58.466Z,76.37
2019-05-09T05:49:24.944Z,75.45
2019-05-09T05:51:59.063Z,74.93
2019-05-09T05:54:27.799Z,74.69
2019-05-09T05:56:54.350Z,74.20
2019-05-09T05:59:20.892Z,74.70
2019-05-09T06:01:47.998Z,74.21
2019-05-09T06:04:14.635Z,74.24
2019-05-09T06:06:40.893Z,73.93
2019-05-09T06:09:08.265Z,73.85
2019-05-09T06:11:34.746Z,73.37
2019-05-09T06:14:08.323Z,72.82
2019-05-09T06:16:29.792Z,73.86
2019-05-09T06:18:58.632Z,73.45
2019-05-09T06:21:24.663Z,73.57
2019-05-09T06:23:51.016Z,73.40
2019-05-09T06:26:18.561Z,73.52
2019-05-09T06:28:45.103Z,72.30
2019-05-09T06:31:11.321Z,72.91
2019-05-09T06:33:45.065Z,72.17
2019-05-09T06:36:08.022Z,72.22
2019-05-09T06:38:34.371Z,71.27
2019-05-09T06:41:00.816Z,70.60
2019-05-09T06:43:29.181Z,71.17
2019-05-09T06:46:08.136Z,71.49
2019-05-09T06:48:37.720Z,71.21
2019-05-09T06:51:03.831Z,71.25
2019-05-09T06:53:30.154Z,72.12
2019-05-09T06:55:58.011Z,70.46
2019-05-09T06:58:30.916Z,71.13
2019-05-09T07:00:59.144Z,71.08
2019-05-09T07:03:39.454Z,70.60
2019-05-09T07:06:13.387Z,69.52
2019-05-09T07:08:44.157Z,68.80
2019-05-09T07:11:10.599Z,68.47
2019-05-09T07:13:38.178Z,68.80
2019-05-09T07:16:04.846Z,70.28
2019-05-09T07:18:31.086Z,68.94
2019-05-09T07:20:57.757Z,67.47
2019-05-09T07:23:24.208Z,68.23
2019-05-09T07:25:58.315Z,67.24
2019-05-09T07:28:28.143Z,68.02
2019-05-09T07:30:58.754Z,67.22
2019-05-09T07:33:27.838Z,67.00
2019-05-09T07:35:54.144Z,66.35
2019-05-09T07:38:30.663Z,66.22
2019-05-09T07:40:58.187Z,66.83
2019-05-09T07:43:24.358Z,64.44
2019-05-09T07:46:03.390Z,64.89
2019-05-09T07:48:40.642Z,63.81
2019-05-09T07:51:07.795Z,63.81
2019-05-09T07:53:34.689Z,63.72
2019-05-09T07:56:01.120Z,63.71
2019-05-09T07:58:28.387Z,64.04
2019-05-09T08:01:01.277Z,65.63
2019-05-09T08:03:27.568Z,63.19
2019-05-09T08:05:54.097Z,63.19
2019-05-09T08:08:20.402Z,61.67
2019-05-09T08:10:47.767Z,62.77
2019-05-09T08:13:13.999Z,61.15
2019-05-09T08:15:40.356Z,61.68
2019-05-09T08:18:08.453Z,64.38
2019-05-09T08:20:35.085Z,61.21
2019-05-09T08:23:02.282Z,62.56
2019-05-09T08:25:28.796Z,60.32
2019-05-09T08:27:55.217Z,59.98
2019-05-09T08:30:21.669Z,57.76
2019-05-09T08:32:48.406Z,58.08
2019-05-09T08:35:14.842Z,55.78
2019-05-09T08:37:40.975Z,55.53
2019-05-09T08:40:08.199Z,55.66
2019-05-09T08:42:34.668Z,54.92
2019-05-09T08:45:01.111Z,56.06
2019-05-09T08:47:27.834Z,58.75
2019-05-09T08:50:01.840Z,57.66
2019-05-09T08:52:29.383Z,59.82
2019-05-09T08:54:57.975Z,62.20
2019-05-09T08:57:24.335Z,61.48
2019-05-09T08:59:50.972Z,58.42
2019-05-09T09:02:21.985Z,57.62
2019-05-09T09:04:45.615Z,57.08
2019-05-09T09:07:11.888Z,58.74
2019-05-09T09:09:38.395Z,61.00
2019-05-09T09:12:21.129Z,60.20
2019-05-09T09:14:33.161Z,59.73
2019-05-09T09:16:59.402Z,57.75
2019-05-09T09:19:28.035Z,56.60
2019-05-09T09:21:57.349Z,54.86
2019-05-09T09:24:22.427Z,54.18
2019-05-09T09:26:48.681Z,50.33
2019-05-09T09:29:14.796Z,51.91
2019-05-09T09:31:42.194Z,51.95
2019-05-09T09:34:08.413Z,52.57
2019-05-09T09:36:34.607Z,50.56
2019-05-09T09:39:02.999Z,50.65
2019-05-09T09:41:29.054Z,53.84
2019-05-09T09:43:55.317Z,48.98
2019-05-09T09:46:21.670Z,51.04
2019-05-09T09:48:48.326Z,49.62
2019-05-09T09:51:14.737Z,51.21
2019-05-09T09:53:40.963Z,50.63
2019-05-09T09:56:08.650Z,54.72
2019-05-09T09:58:35.202Z,53.29
2019-05-09T10:01:09.444Z,52.79
2019-05-09T10:03:35.679Z,53.89
2019-05-09T10:06:02.003Z,53.40
2019-05-09T10:08:28.488Z,50.88
2019-05-09T10:10:54.840Z,49.16
2019-05-09T10:13:21.436Z,52.23
2019-05-09T10:15:49.452Z,50.11
2019-05-09T10:18:20.357Z,52.12
2019-05-09T10:20:48.643Z,51.72
2019-05-09T10:23:18.839Z,53.06
2019-05-09T10:25:43.174Z,55.91
2019-05-09T10:28:09.417Z,53.92
2019-05-09T10:30:38.000Z,54.65
2019-05-09T10:33:04.026Z,51.89
2019-05-09T10:35:30.369Z,51.15
2019-05-09T10:37:58.861Z,52.89
2019-05-09T10:40:25.249Z,54.82
2019-05-09T10:42:53.510Z,53.13
2019-05-09T10:45:41.071Z,53.82
2019-05-09T10:48:08.286Z,53.02
2019-05-09T10:50:35.154Z,53.24
2019-05-09T10:53:01.722Z,52.98
2019-05-09T10:55:28.426Z,52.77
2019-05-09T10:57:55.326Z,53.44
2019-05-09T11:00:21.793Z,51.29
2019-05-09T11:02:48.430Z,51.54
2019-05-09T11:05:18.279Z,50.03
2019-05-09T11:07:43.971Z,50.18
2019-05-09T11:10:24.505Z,51.62
2019-05-09T11:12:38.445Z,48.89
2019-05-09T11:15:09.133Z,46.99
2019-05-09T11:17:35.751Z,47.73
2019-05-09T11:20:08.437Z,46.27
2019-05-09T11:22:33.535Z,48.96
2019-05-09T11:25:00.158Z,47.53
2019-05-09T11:27:28.974Z,51.04
2019-05-09T11:29:54.775Z,51.88
2019-05-09T11:32:21.039Z,52.97
2019-05-09T11:34:48.615Z,51.65
2019-05-09T11:37:16.984Z,51.07
2019-05-09T11:39:43.307Z,51.35
2019-05-09T11:42:09.678Z,53.13
2019-05-09T11:44:38.400Z,50.98
2019-05-09T11:47:04.034Z,50.91
2019-05-09T11:49:30.446Z,50.05
2019-05-09T11:51:57.642Z,50.45
2019-05-09T11:54:24.095Z,50.91
2019-05-09T11:56:50.483Z,50.79
2019-05-09T11:59:18.923Z,50.98
2019-05-09T12:01:44.956Z,51.00
2019-05-09T12:04:11.203Z,50.46
2019-05-09T12:06:38.295Z,49.79
2019-05-09T12:09:08.653Z,49.47
2019-05-09T12:11:41.292Z,48.59
2019-05-09T12:14:04.364Z,48.38
2019-05-09T12:16:30.658Z,47.37
2019-05-09T12:18:58.347Z,49.33
2019-05-09T12:21:27.981Z,48.94
2019-05-09T12:23:53.539Z,47.83
2019-05-09T12:26:19.918Z,48.54
2019-05-09T12:28:48.354Z,48.45
2019-05-09T12:31:14.809Z,49.25
2019-05-09T12:33:41.512Z,49.79
2019-05-09T12:36:09.209Z,49.72
2019-05-09T12:38:38.889Z,49.47
2019-05-09T12:41:04.746Z,50.11
2019-05-09T12:43:32.203Z,48.98
2019-05-09T12:46:00.041Z,51.32
2019-05-09T12:48:27.900Z,50.75
2019-05-09T12:50:54.446Z,48.63
2019-05-09T12:53:20.901Z,48.67
2019-05-09T12:55:49.330Z,47.81
2019-05-09T12:58:27.865Z,48.10
2019-05-09T13:00:58.469Z,47.49
2019-05-09T13:03:27.693Z,46.08
2019-05-09T13:05:54.163Z,44.28
2019-05-09T13:08:20.505Z,45.41
2019-05-09T13:10:48.862Z,44.24
2019-05-09T13:13:15.272Z,45.58
2019-05-09T13:16:00.033Z,46.41
2019-05-09T13:18:29.696Z,45.51
2019-05-09T13:20:58.075Z,44.27
2019-05-09T13:23:24.162Z,44.91
2019-05-09T13:25:50.640Z,45.67
2019-05-09T13:28:17.598Z,46.04
2019-05-09T13:30:43.863Z,46.43
2019-05-09T13:33:11.020Z,47.67
2019-05-09T13:35:39.314Z,47.55
2019-05-09T13:38:08.534Z,49.65
2019-05-09T13:40:33.842Z,49.39
2019-05-09T13:43:00.118Z,49.78
2019-05-09T13:45:28.653Z,50.15
2019-05-09T13:47:54.612Z,50.78
2019-05-09T13:50:20.943Z,50.79
2019-05-09T13:52:48.043Z,51.24
2019-05-09T13:55:14.463Z,51.11
2019-05-09T13:57:40.909Z,50.61
2019-05-09T14:00:08.868Z,49.96
2019-05-09T14:02:35.204Z,51.35
2019-05-09T14:05:02.879Z,49.84
2019-05-09T14:07:29.259Z,50.42
2019-05-09T14:09:55.630Z,50.96
2019-05-09T14:12:21.947Z,48.91
2019-05-09T14:14:48.249Z,49.66
2019-05-09T14:17:14.625Z,49.04
2019-05-09T14:19:46.551Z,49.83
2019-05-09T14:22:09.397Z,51.31
2019-05-09T14:24:35.869Z,49.50
2019-05-09T14:27:02.304Z,50.56
2019-05-09T14:29:31.667Z,50.92
2019-05-09T14:31:56.785Z,51.47
2019-05-09T14:34:23.012Z,50.72
2019-05-09T14:36:49.695Z,51.34
2019-05-09T14:39:18.020Z,50.57
2019-05-09T14:41:47.068Z,50.39
2019-05-09T14:44:12.328Z,51.21
2019-05-09T14:46:39.320Z,51.84
2019-05-09T14:49:07.910Z,51.92
2019-05-09T14:51:34.194Z,52.62
2019-05-09T14:54:00.416Z,52.19
2019-05-09T14:56:27.987Z,53.39
2019-05-09T14:58:57.724Z,52.45
2019-05-09T15:01:24.677Z,53.76
2019-05-09T15:03:51.215Z,53.67
2019-05-09T15:06:18.362Z,53.63
2019-05-09T15:08:44.780Z,51.96
2019-05-09T15:11:10.972Z,52.57
2019-05-09T15:13:37.245Z,52.28
2019-05-09T15:16:03.582Z,51.63
2019-05-09T15:18:29.861Z,51.63
2019-05-09T15:20:58.132Z,51.47
2019-05-09T15:23:24.659Z,51.72
2019-05-09T15:25:50.909Z,53.02
2019-05-09T15:28:17.705Z,50.52
2019-05-09T15:30:44.007Z,50.37
2019-05-09T15:33:10.181Z,51.54
2019-05-09T15:35:38.850Z,52.84
2019-05-09T15:38:04.757Z,52.12
2019-05-09T15:40:31.038Z,52.60
2019-05-09T15:42:58.760Z,52.81
2019-05-09T15:45:28.576Z,54.27
2019-05-09T15:47:54.997Z,54.64
2019-05-09T15:50:23.278Z,54.56
2019-05-09T15:52:49.896Z,54.81
2019-05-09T15:55:17.713Z,54.18
2019-05-09T15:57:44.296Z,54.85
2019-05-09T16:00:12.441Z,54.12
2019-05-09T16:02:39.272Z,53.52
2019-05-09T16:05:10.061Z,54.41
2019-05-09T16:07:34.418Z,54.08
2019-05-09T16:10:00.856Z,54.02
2019-05-09T16:12:27.746Z,54.26
2019-05-09T16:14:54.151Z,54.51
2019-05-09T16:17:20.555Z,54.14
2019-05-09T16:19:48.302Z,54.21
2019-05-09T16:22:14.930Z,55.11
2019-05-09T16:24:41.253Z,54.58
2019-05-09T16:27:08.437Z,53.97
2019-05-09T16:29:34.989Z,55.60
2019-05-09T16:32:01.497Z,54.80
2019-05-09T16:34:28.307Z,54.96
2019-05-09T16:36:54.863Z,55.41
2019-05-09T16:39:21.324Z,55.41
2019-05-09T16:41:48.399Z,55.59
2019-05-09T16:44:15.035Z,55.76
2019-05-09T16:46:41.534Z,55.88
2019-05-09T16:49:11.724Z,55.82
2019-05-09T16:51:37.942Z,56.71
2019-05-09T16:54:04.484Z,56.55
2019-05-09T16:56:30.788Z,56.09
2019-05-09T16:58:57.830Z,56.81
2019-05-09T17:01:24.360Z,56.45
2019-05-09T17:03:50.688Z,56.89
2019-05-09T17:06:18.383Z,56.85
2019-05-09T17:08:44.821Z,57.32
2019-05-09T17:11:11.296Z,57.78
2019-05-09T17:13:37.543Z,58.17
2019-05-09T17:16:03.950Z,57.64
2019-05-09T17:18:30.503Z,57.93
2019-05-09T17:21:03.115Z,57.84
2019-05-09T17:23:29.637Z,57.82
2019-05-09T17:25:57.895Z,58.93
2019-05-09T17:28:24.650Z,59.20
2019-05-09T17:30:51.267Z,59.88
2019-05-09T17:33:17.608Z,60.63
2019-05-09T17:35:44.059Z,60.38
2019-05-09T17:38:11.485Z,60.39
2019-05-09T17:40:39.066Z,60.46
2019-05-09T17:43:08.260Z,60.64
2019-05-09T17:45:34.283Z,61.48
2019-05-09T17:48:00.568Z,60.49
2019-05-09T17:50:28.387Z,60.81
2019-05-09T17:52:54.833Z,61.25
2019-05-09T17:55:21.230Z,62.15
2019-05-09T17:57:48.029Z,61.89
2019-05-09T18:00:19.258Z,62.27
2019-05-09T18:02:43.292Z,63.38
2019-05-09T18:05:09.851Z,63.08
2019-05-09T18:07:37.720Z,63.27
2019-05-09T18:10:08.575Z,63.77
2019-05-09T18:12:38.251Z,64.07
2019-05-09T18:15:07.541Z,63.61
2019-05-09T18:17:34.122Z,64.07
2019-05-09T18:20:00.466Z,63.14
2019-05-09T18:22:26.993Z,62.73
2019-05-09T18:24:53.398Z,63.12
2019-05-09T18:27:19.662Z,63.54
2019-05-09T18:29:47.429Z,63.78
2019-05-09T18:32:27.984Z,63.97
2019-05-09T18:35:02.058Z,64.41
2019-05-09T18:37:28.473Z,64.56
2019-05-09T18:39:54.650Z,64.82
2019-05-09T18:42:20.931Z,65.23
2019-05-09T18:44:47.688Z,65.66
2019-05-09T18:47:14.478Z,65.77
2019-05-09T18:49:40.762Z,66.05
2019-05-09T18:52:07.143Z,66.24
2019-05-09T18:54:33.467Z,66.48
2019-05-09T18:56:59.740Z,66.37
2019-05-09T18:59:25.917Z,66.43
2019-05-09T19:01:52.267Z,66.55
2019-05-09T19:04:18.546Z,66.74
2019-05-09T19:06:46.611Z,67.04
2019-05-09T19:09:12.880Z,67.31
2019-05-09T19:11:39.585Z,67.54
2019-05-09T19:14:07.296Z,67.67
2019-05-09T19:16:48.348Z,67.81
2019-05-09T19:19:25.185Z,68.02
2019-05-09T19:21:56.003Z,67.97
2019-05-09T19:24:22.423Z,68.04
2019-05-09T19:26:48.807Z,67.94
2019-05-09T19:29:15.280Z,68.68
2019-05-09T19:31:42.099Z,68.99
2019-05-09T19:34:08.581Z,69.05
2019-05-09T19:36:35.247Z,69.33
2019-05-09T19:39:01.704Z,69.45
2019-05-09T19:41:29.220Z,69.60
2019-05-09T19:43:55.660Z,70.27
2019-05-09T19:46:22.024Z,70.09
2019-05-09T19:48:48.668Z,70.55
2019-05-09T19:51:16.251Z,70.73
2019-05-09T19:53:42.787Z,70.67
2019-05-09T19:56:11.631Z,70.32
2019-05-09T19:58:38.017Z,70.55
2019-05-09T20:01:04.610Z,70.56
2019-05-09T20:03:30.876Z,70.92
2019-05-09T20:05:57.434Z,71.10
2019-05-09T20:08:24.026Z,71.51
2019-05-09T20:10:55.078Z,71.25
2019-05-09T20:13:26.030Z,71.73
2019-05-09T20:15:52.492Z,71.63
2019-05-09T20:18:19.936Z,71.69
2019-05-09T20:20:46.276Z,71.86
2019-05-09T20:23:13.621Z,72.82
2019-05-09T20:25:40.079Z,72.82
2019-05-09T20:28:06.773Z,72.86
2019-05-09T20:30:33.389Z,73.11
2019-05-09T20:32:59.676Z,73.14
2019-05-09T20:35:26.281Z,73.05
2019-05-09T20:37:53.996Z,73.01
2019-05-09T20:40:20.295Z,73.22
2019-05-09T20:42:46.807Z,73.15
2019-05-09T20:45:13.174Z,73.15
2019-05-09T20:47:39.653Z,73.60
2019-05-09T20:50:06.790Z,73.52
2019-05-09T20:52:33.489Z,73.88
2019-05-09T20:55:00.395Z,74.81
2019-05-09T20:57:27.248Z,74.65
2019-05-09T20:59:53.799Z,74.53
2019-05-09T21:02:20.510Z,73.99
2019-05-09T21:04:47.155Z,73.99
2019-05-09T21:07:14.006Z,73.62
2019-05-09T21:09:41.048Z,74.19
2019-05-09T21:12:11.132Z,74.19
2019-05-09T21:14:37.925Z,74.30
2019-05-09T21:17:04.937Z,73.71
2019-05-09T21:19:31.307Z,73.66
2019-05-09T21:21:58.666Z,73.88
2019-05-09T21:24:25.009Z,73.72
2019-05-09T21:26:51.240Z,73.21
2019-05-09T21:29:17.566Z,73.18
2019-05-09T21:31:44.074Z,72.35
2019-05-09T21:34:10.338Z,72.61
2019-05-09T21:36:36.680Z,71.75
2019-05-09T21:39:05.144Z,70.73
2019-05-09T21:41:31.483Z,70.41
2019-05-09T21:43:57.781Z,69.67
2019-05-09T21:46:23.916Z,69.32
2019-05-09T21:48:50.322Z,70.30
2019-05-09T21:51:17.725Z,70.48
2019-05-09T21:53:44.125Z,72.04
2019-05-09T21:56:10.482Z,71.76
2019-05-09T21:58:36.761Z,74.17
2019-05-09T22:01:06.480Z,76.95
2019-05-09T22:03:33.020Z,75.68
2019-05-09T22:05:59.457Z,75.90
2019-05-09T22:08:25.993Z,77.22
2019-05-09T22:10:52.333Z,77.53
2019-05-09T22:13:18.752Z,77.64
2019-05-09T22:15:45.180Z,78.63
2019-05-09T22:18:13.465Z,78.73
2019-05-09T22:20:39.681Z,78.82
2019-05-09T22:23:06.738Z,78.72
2019-05-09T22:25:34.222Z,78.37
2019-05-09T22:28:00.759Z,78.19
2019-05-09T22:30:27.199Z,78.38
2019-05-09T22:32:53.453Z,78.81
2019-05-09T22:35:19.776Z,80.10
2019-05-09T22:37:45.924Z,81.07
2019-05-09T22:40:12.852Z,82.27
2019-05-09T22:42:39.176Z,83.16
2019-05-09T22:45:06.177Z,83.58
2019-05-09T22:47:32.500Z,84.04
2019-05-09T22:49:58.834Z,83.99
2019-05-09T22:52:25.136Z,84.12
2019-05-09T22:54:51.560Z,84.50
2019-05-09T22:57:17.906Z,84.44
2019-05-09T22:59:47.004Z,84.38
2019-05-09T23:02:13.308Z,84.70
2019-05-09T23:04:39.553Z,84.59
2019-05-09T23:07:06.038Z,84.85
2019-05-09T23:09:32.285Z,84.77
2019-05-09T23:11:58.528Z,84.64
2019-05-09T23:14:26.162Z,84.86
2019-05-09T23:16:52.498Z,84.67
2019-05-09T23:19:18.813Z,84.61
2019-05-09T23:21:45.511Z,84.82
2019-05-09T23:24:27.541Z,84.55
2019-05-09T23:26:42.047Z,84.40
2019-05-09T23:29:08.417Z,84.63
2019-05-09T23:31:42.503Z,84.60
2019-05-09T23:34:08.723Z,84.59
2019-05-09T23:36:35.097Z,84.62
2019-05-09T23:39:09.075Z,84.11
2019-05-09T23:41:35.390Z,84.42
2019-05-09T23:44:01.635Z,84.62
2019-05-09T23:46:27.739Z,84.94
2019-05-09T23:48:53.834Z,85.03
2019-05-09T23:51:20.067Z,84.54
2019-05-09T23:53:55.199Z,84.72
2019-05-09T23:56:39.937Z,84.76
2019-05-09T23:59:25.878Z,85.06
